createdAt,value
2024-02-01T00:00:15.080Z,0.15
2024-02-01T00:03:16.990Z,0.17
2024-02-01T00:06:19.028Z,0.04
2024-02-01T00:09:20.939Z,-0.04
2024-02-01T00:12:22.726Z,0.07
2024-02-01T00:15:24.572Z,0.00
2024-02-01T00:18:26.438Z,0.11
2024-02-01T00:21:28.298Z,0.15
2024-02-01T00:24:30.055Z,0.16
2024-02-01T00:27:31.838Z,-0.09
2024-02-01T00:30:33.683Z,0.03
2024-02-01T00:33:35.611Z,0.00
2024-02-01T00:36:37.496Z,-0.18
2024-02-01T00:39:39.267Z,-0.09
2024-02-01T00:42:41.145Z,-0.10
2024-02-01T00:45:43.001Z,0.06
2024-02-01T00:48:45.015Z,0.15
2024-02-01T00:51:46.904Z,0.29
2024-02-01T00:54:48.692Z,0.47
2024-02-01T00:57:50.475Z,0.44
2024-02-01T01:00:52.371Z,0.56
2024-02-01T01:03:56.074Z,0.56
2024-02-01T01:06:58.069Z,0.46
2024-02-01T01:09:59.820Z,0.50
2024-02-01T01:13:01.622Z,0.52
2024-02-01T01:16:03.433Z,0.50
2024-02-01T01:19:05.456Z,0.56
2024-02-01T01:22:07.365Z,0.40
2024-02-01T01:25:09.193Z,0.29
2024-02-01T01:28:11.020Z,0.22
2024-02-01T01:31:12.819Z,0.09
2024-02-01T01:34:15.090Z,0.05
2024-02-01T01:37:16.957Z,0.16
2024-02-01T01:40:18.843Z,0.16
2024-02-01T01:43:20.609Z,0.12
2024-02-01T01:46:22.632Z,0.17
2024-02-01T01:49:24.905Z,0.29
2024-02-01T01:52:28.952Z,0.28
2024-02-01T01:55:30.912Z,0.22
2024-02-01T01:58:34.825Z,0.25
2024-02-01T02:01:38.299Z,0.34
2024-02-01T02:04:41.820Z,0.44
2024-02-01T02:07:43.633Z,0.54
2024-02-01T02:10:45.464Z,0.58
2024-02-01T02:13:47.834Z,0.64
2024-02-01T02:16:49.604Z,0.67
2024-02-01T02:19:51.704Z,0.72
2024-02-01T02:22:56.320Z,0.68
2024-02-01T02:25:58.219Z,0.72
2024-02-01T02:29:00.000Z,0.77
2024-02-01T02:32:02.135Z,0.74
2024-02-01T02:35:04.212Z,0.73
2024-02-01T02:38:06.044Z,0.67
2024-02-01T02:41:07.851Z,0.53
2024-02-01T02:44:12.333Z,0.56
2024-02-01T02:47:14.300Z,0.50
2024-02-01T02:50:16.191Z,0.34
2024-02-01T02:53:18.054Z,0.55
2024-02-01T02:56:19.805Z,0.46
2024-02-01T02:59:23.442Z,0.59
2024-02-01T03:02:25.183Z,0.60
2024-02-01T03:05:27.735Z,0.66
2024-02-01T03:08:29.471Z,0.56
2024-02-01T03:11:31.275Z,0.44
2024-02-01T03:14:33.083Z,0.47
2024-02-01T03:17:35.725Z,0.45
2024-02-01T03:20:38.210Z,0.41
2024-02-01T03:23:42.836Z,0.45
2024-02-01T03:26:45.112Z,0.44
2024-02-01T03:29:47.456Z,0.57
2024-02-01T03:32:49.372Z,0.57
2024-02-01T03:35:51.321Z,0.59
2024-02-01T03:38:53.161Z,0.71
2024-02-01T03:41:56.544Z,0.70
2024-02-01T03:44:58.371Z,0.74
2024-02-01T03:48:00.443Z,0.67
2024-02-01T03:51:03.424Z,0.62
2024-02-01T03:54:10.198Z,0.61
2024-02-01T03:57:15.863Z,0.74
2024-02-01T04:00:29.583Z,0.64
2024-02-01T04:03:32.466Z,0.54
2024-02-01T04:06:37.857Z,0.56
2024-02-01T04:09:39.761Z,0.50
2024-02-01T04:12:41.513Z,0.53
2024-02-01T04:15:43.913Z,0.58
2024-02-01T04:18:45.944Z,0.60
2024-02-01T04:21:49.081Z,0.43
2024-02-01T04:24:50.944Z,0.43
2024-02-01T04:27:55.744Z,0.58
2024-02-01T04:30:58.477Z,0.56
2024-02-01T04:34:01.710Z,0.47
2024-02-01T04:37:06.401Z,0.50
2024-02-01T04:40:09.490Z,0.45
2024-02-01T04:43:12.245Z,0.43
2024-02-01T04:46:14.182Z,0.32
2024-02-01T04:49:16.338Z,0.27
2024-02-01T04:52:18.360Z,0.20
2024-02-01T04:55:20.140Z,0.04
2024-02-01T04:58:22.242Z,-0.05
2024-02-01T05:01:25.485Z,-0.08
2024-02-01T05:04:27.384Z,-0.09
2024-02-01T05:07:32.016Z,-0.01
2024-02-01T05:10:33.819Z,0.04
2024-02-01T05:13:35.676Z,0.07
2024-02-01T05:16:37.556Z,0.11
2024-02-01T05:19:39.346Z,0.15
2024-02-01T05:22:42.364Z,-0.03
2024-02-01T05:25:44.162Z,-0.11
2024-02-01T05:28:45.916Z,0.02
2024-02-01T05:31:50.729Z,-0.27
2024-02-01T05:34:52.462Z,-0.14
2024-02-01T05:37:55.691Z,-0.18
2024-02-01T05:40:58.004Z,-0.31
2024-02-01T05:43:59.757Z,-0.30
2024-02-01T05:47:06.911Z,-0.37
2024-02-01T05:50:12.792Z,-0.29
2024-02-01T05:53:14.608Z,-0.22
2024-02-01T05:56:16.376Z,-0.19
2024-02-01T05:59:19.751Z,-0.12
2024-02-01T06:02:21.535Z,-0.04
2024-02-01T06:05:23.924Z,-0.05
2024-02-01T06:08:25.915Z,-0.11
2024-02-01T06:11:27.960Z,-0.03
2024-02-01T06:14:29.764Z,0.06
2024-02-01T06:17:32.058Z,0.09
2024-02-01T06:20:36.031Z,0.17
2024-02-01T06:23:37.925Z,0.30
2024-02-01T06:26:39.859Z,0.30
2024-02-01T06:29:42.058Z,0.32
2024-02-01T06:32:44.240Z,0.27
2024-02-01T06:35:46.569Z,0.31
2024-02-01T06:39:00.625Z,0.37
2024-02-01T06:42:05.696Z,0.50
2024-02-01T06:45:29.503Z,0.51
2024-02-01T06:48:43.595Z,0.60
2024-02-01T06:51:47.814Z,0.59
2024-02-01T06:55:11.777Z,0.59
2024-02-01T06:58:19.092Z,0.78
2024-02-01T07:01:47.735Z,0.80
2024-02-01T07:04:54.944Z,0.86
2024-02-01T07:08:03.801Z,0.96
2024-02-01T07:11:12.504Z,1.10
2024-02-01T07:14:16.911Z,1.22
2024-02-01T07:17:27.374Z,1.32
2024-02-01T07:20:50.051Z,1.64
2024-02-01T07:24:48.121Z,1.60
2024-02-01T07:28:10.848Z,1.74
2024-02-01T07:31:31.271Z,1.94
2024-02-01T07:34:51.712Z,2.06
2024-02-01T07:38:13.061Z,1.98
2024-02-01T07:41:33.545Z,1.98
2024-02-01T07:44:53.723Z,2.10
2024-02-01T07:48:14.260Z,2.17
2024-02-01T07:51:34.810Z,2.35
2024-02-01T07:55:01.688Z,2.53
2024-02-01T07:58:09.339Z,2.77
2024-02-01T08:01:19.626Z,2.81
2024-02-01T08:04:41.757Z,2.81
2024-02-01T08:07:50.230Z,2.83
2024-02-01T08:10:57.941Z,2.93
2024-02-01T08:13:59.935Z,3.01
2024-02-01T08:17:06.927Z,2.99
2024-02-01T08:20:13.044Z,2.85
2024-02-01T08:23:20.307Z,3.01
2024-02-01T08:26:22.973Z,2.87
2024-02-01T08:29:37.167Z,2.77
2024-02-01T08:32:43.329Z,2.85
2024-02-01T08:35:45.475Z,2.59
2024-02-01T08:38:47.457Z,2.54
2024-02-01T08:41:49.292Z,2.70
2024-02-01T08:44:51.158Z,2.89
2024-02-01T08:47:53.815Z,3.00
2024-02-01T08:50:56.381Z,3.11
2024-02-01T08:53:58.335Z,3.22
2024-02-01T08:57:01.770Z,3.18
2024-02-01T09:00:22.327Z,3.18
2024-02-01T09:03:32.672Z,3.43
2024-02-01T09:06:34.589Z,3.46
2024-02-01T09:09:37.292Z,3.72
2024-02-01T09:12:39.083Z,3.66
2024-02-01T09:15:41.223Z,3.54
2024-02-01T09:18:43.635Z,3.59
2024-02-01T09:21:45.593Z,3.57
2024-02-01T09:24:47.450Z,3.64
2024-02-01T09:27:52.987Z,3.63
2024-02-01T09:30:56.471Z,3.67
2024-02-01T09:33:58.692Z,3.84
2024-02-01T09:37:00.615Z,3.87
2024-02-01T09:40:02.552Z,3.96
2024-02-01T09:43:04.553Z,4.20
2024-02-01T09:46:09.450Z,4.10
2024-02-01T09:49:17.980Z,4.09
2024-02-01T09:52:24.001Z,4.12
2024-02-01T09:55:26.417Z,4.31
2024-02-01T09:58:29.320Z,4.46
2024-02-01T10:01:32.258Z,4.33
2024-02-01T10:04:34.847Z,4.27
2024-02-01T10:07:37.007Z,4.34
2024-02-01T10:10:40.124Z,4.54
2024-02-01T10:13:48.617Z,4.60
2024-02-01T10:16:56.064Z,4.63
2024-02-01T10:20:00.895Z,4.61
2024-02-01T10:23:06.569Z,4.57
2024-02-01T10:26:19.502Z,4.53
2024-02-01T10:29:21.837Z,4.53
2024-02-01T10:32:30.662Z,4.39
2024-02-01T10:35:35.386Z,4.54
2024-02-01T10:38:37.418Z,4.51
2024-02-01T10:41:48.557Z,4.39
2024-02-01T10:44:53.054Z,4.34
2024-02-01T10:47:56.380Z,4.40
2024-02-01T10:50:58.242Z,4.46
2024-02-01T10:54:00.511Z,4.53
2024-02-01T10:57:06.936Z,4.56
2024-02-01T11:00:21.489Z,4.72
2024-02-01T11:03:28.874Z,4.77
2024-02-01T11:06:33.182Z,4.75
2024-02-01T11:09:39.349Z,4.90
2024-02-01T11:12:41.397Z,5.05
2024-02-01T11:15:53.789Z,5.12
2024-02-01T11:18:58.254Z,5.25
2024-02-01T11:22:04.967Z,5.94
2024-02-01T11:25:09.082Z,5.92
2024-02-01T11:28:30.403Z,5.66
2024-02-01T11:31:42.058Z,5.75
2024-02-01T11:34:55.986Z,5.73
2024-02-01T11:38:08.077Z,5.70
2024-02-01T11:41:11.031Z,5.73
2024-02-01T11:44:16.380Z,5.81
2024-02-01T11:47:27.600Z,5.92
2024-02-01T11:50:31.856Z,5.93
2024-02-01T11:53:34.047Z,6.05
2024-02-01T11:56:35.900Z,6.12
2024-02-01T11:59:38.458Z,5.99
2024-02-01T12:02:41.703Z,5.95
2024-02-01T12:05:46.887Z,6.03
2024-02-01T12:08:51.267Z,6.02
2024-02-01T12:11:55.698Z,6.00
2024-02-01T12:14:58.678Z,5.83
2024-02-01T12:18:02.033Z,5.88
2024-02-01T12:21:12.658Z,5.98
2024-02-01T12:24:19.172Z,6.19
2024-02-01T12:27:21.304Z,6.15
2024-02-01T12:30:27.688Z,6.26
2024-02-01T12:33:29.709Z,6.54
2024-02-01T12:36:32.179Z,6.66
2024-02-01T12:39:41.836Z,6.62
2024-02-01T12:42:46.485Z,6.71
2024-02-01T12:45:49.238Z,6.64
2024-02-01T12:48:54.568Z,6.68
2024-02-01T12:52:05.576Z,6.55
2024-02-01T12:55:08.654Z,6.62
2024-02-01T12:58:10.494Z,6.53
2024-02-01T13:01:13.873Z,6.70
2024-02-01T13:04:15.980Z,6.72
2024-02-01T13:07:17.792Z,6.80
2024-02-01T13:10:19.698Z,6.80
2024-02-01T13:13:21.558Z,6.68
2024-02-01T13:16:25.942Z,6.65
2024-02-01T13:19:27.822Z,6.66
2024-02-01T13:22:30.342Z,6.71
2024-02-01T13:25:32.192Z,6.84
2024-02-01T13:28:34.217Z,7.17
2024-02-01T13:31:39.762Z,7.27
2024-02-01T13:34:42.792Z,7.40
2024-02-01T13:37:47.808Z,7.83
2024-02-01T13:40:49.836Z,8.17
2024-02-01T13:43:51.859Z,8.20
2024-02-01T13:46:53.687Z,8.11
2024-02-01T13:49:55.631Z,7.95
2024-02-01T13:52:58.858Z,8.31
2024-02-01T13:56:00.886Z,8.70
2024-02-01T13:59:03.218Z,8.84
2024-02-01T14:02:05.240Z,8.67
2024-02-01T14:05:07.213Z,9.37
2024-02-01T14:08:10.156Z,9.10
2024-02-01T14:11:12.628Z,8.71
2024-02-01T14:14:14.521Z,8.52
2024-02-01T14:17:16.278Z,8.25
2024-02-01T14:20:18.288Z,8.08
2024-02-01T14:23:20.080Z,8.15
2024-02-01T14:26:23.497Z,8.04
2024-02-01T14:29:25.270Z,8.08
2024-02-01T14:32:27.069Z,8.06
2024-02-01T14:35:28.888Z,8.07
2024-02-01T14:38:30.759Z,8.05
2024-02-01T14:41:32.533Z,7.97
2024-02-01T14:44:35.637Z,7.79
2024-02-01T14:47:38.419Z,7.69
2024-02-01T14:50:40.367Z,7.65
2024-02-01T14:53:42.294Z,7.64
2024-02-01T14:56:44.082Z,7.55
2024-02-01T14:59:46.068Z,7.54
2024-02-01T15:02:47.832Z,7.46
2024-02-01T15:05:49.810Z,7.39
2024-02-01T15:08:59.454Z,7.36
2024-02-01T15:12:01.532Z,7.26
2024-02-01T15:15:03.595Z,7.22
2024-02-01T15:18:06.052Z,7.10
2024-02-01T15:21:13.587Z,7.21
2024-02-01T15:24:16.256Z,7.33
2024-02-01T15:27:19.731Z,7.30
2024-02-01T15:30:22.587Z,7.25
2024-02-01T15:33:25.175Z,7.32
2024-02-01T15:36:27.661Z,7.29
2024-02-01T15:39:32.247Z,7.14
2024-02-01T15:42:34.147Z,7.24
2024-02-01T15:45:36.722Z,7.26
2024-02-01T15:48:42.258Z,7.25
2024-02-01T15:51:44.600Z,7.28
2024-02-01T15:54:46.632Z,7.21
2024-02-01T15:57:48.562Z,7.24
2024-02-01T16:00:50.388Z,7.31
2024-02-01T16:03:52.300Z,7.22
2024-02-01T16:06:54.772Z,7.23
2024-02-01T16:09:56.651Z,7.35
2024-02-01T16:12:58.440Z,7.31
2024-02-01T16:16:00.294Z,7.20
2024-02-01T16:19:05.513Z,7.27
2024-02-01T16:22:11.297Z,7.34
2024-02-01T16:25:39.224Z,7.29
2024-02-01T16:28:41.357Z,7.29
2024-02-01T16:31:43.226Z,7.21
2024-02-01T16:34:47.165Z,7.14
2024-02-01T16:37:49.040Z,7.15
2024-02-01T16:40:51.404Z,7.09
2024-02-01T16:43:54.721Z,7.03
2024-02-01T16:46:56.594Z,6.97
2024-02-01T16:50:05.467Z,6.96
2024-02-01T16:53:09.842Z,6.99
2024-02-01T16:56:12.310Z,6.96
2024-02-01T16:59:20.744Z,6.93
2024-02-01T17:02:34.695Z,6.96
2024-02-01T17:05:36.842Z,6.95
2024-02-01T17:08:59.171Z,6.92
2024-02-01T17:12:03.075Z,6.92
2024-02-01T17:15:06.004Z,6.88
2024-02-01T17:18:08.153Z,6.84
2024-02-01T17:21:10.231Z,6.87
2024-02-01T17:24:21.224Z,6.86
2024-02-01T17:27:34.881Z,6.77
2024-02-01T17:31:03.666Z,6.81
2024-02-01T17:34:32.777Z,6.76
2024-02-01T17:37:40.446Z,6.76
2024-02-01T17:40:58.403Z,6.77
2024-02-01T17:44:08.947Z,6.67
2024-02-01T17:47:11.087Z,6.58
2024-02-01T17:50:39.893Z,6.66
2024-02-01T17:53:42.302Z,6.59
2024-02-01T17:56:46.160Z,6.62
2024-02-01T17:59:49.022Z,6.51
2024-02-01T18:02:51.355Z,6.48
2024-02-01T18:05:53.620Z,6.49
2024-02-01T18:08:56.222Z,6.45
2024-02-01T18:12:03.511Z,6.46
2024-02-01T18:15:21.353Z,6.38
2024-02-01T18:18:28.015Z,6.28
2024-02-01T18:21:30.538Z,6.36
2024-02-01T18:24:40.787Z,6.37
2024-02-01T18:27:42.815Z,6.28
2024-02-01T18:30:45.122Z,6.30
2024-02-01T18:33:52.288Z,6.28
2024-02-01T18:36:55.978Z,6.23
2024-02-01T18:39:58.954Z,6.12
2024-02-01T18:43:08.926Z,6.14
2024-02-01T18:46:34.328Z,6.16
2024-02-01T18:49:38.102Z,6.12
2024-02-01T18:52:40.056Z,6.06
2024-02-01T18:55:42.873Z,6.08
2024-02-01T18:58:45.389Z,6.05
2024-02-01T19:01:49.769Z,5.98
2024-02-01T19:04:57.100Z,6.03
2024-02-01T19:08:03.703Z,5.96
2024-02-01T19:11:05.579Z,6.04
2024-02-01T19:14:14.445Z,6.02
2024-02-01T19:17:16.805Z,5.96
2024-02-01T19:20:24.236Z,5.91
2024-02-01T19:23:28.687Z,5.86
2024-02-01T19:26:33.035Z,5.90
2024-02-01T19:29:35.106Z,5.92
2024-02-01T19:32:46.938Z,5.81
2024-02-01T19:35:50.112Z,5.88
2024-02-01T19:38:52.818Z,5.90
2024-02-01T19:41:55.053Z,5.93
2024-02-01T19:44:56.851Z,5.98
2024-02-01T19:47:58.778Z,6.04
2024-02-01T19:51:03.740Z,6.03
2024-02-01T19:54:05.959Z,6.10
2024-02-01T19:57:10.448Z,6.20
2024-02-01T20:00:13.195Z,6.16
2024-02-01T20:03:17.134Z,6.19
2024-02-01T20:06:21.814Z,6.09
2024-02-01T20:09:23.850Z,6.14
2024-02-01T20:12:25.913Z,6.11
2024-02-01T20:15:29.041Z,6.11
2024-02-01T20:18:31.202Z,6.05
2024-02-01T20:21:36.649Z,6.01
2024-02-01T20:24:42.236Z,5.89
2024-02-01T20:27:44.448Z,5.94
2024-02-01T20:30:46.769Z,6.00
2024-02-01T20:33:56.020Z,6.00
2024-02-01T20:37:03.552Z,5.94
2024-02-01T20:40:40.113Z,5.90
2024-02-01T20:43:42.002Z,5.73
2024-02-01T20:46:50.629Z,5.73
2024-02-01T20:49:53.559Z,5.73
2024-02-01T20:52:55.418Z,5.73
2024-02-01T20:55:57.235Z,5.70
2024-02-01T20:59:03.664Z,5.45
2024-02-01T21:02:30.286Z,5.47
2024-02-01T21:05:39.067Z,5.43
2024-02-01T21:08:42.740Z,5.43
2024-02-01T21:11:50.714Z,5.42
2024-02-01T21:14:52.988Z,5.33
2024-02-01T21:17:56.582Z,5.34
2024-02-01T21:21:04.608Z,5.30
2024-02-01T21:24:06.904Z,5.19
2024-02-01T21:27:16.414Z,5.26
2024-02-01T21:30:19.007Z,5.30
2024-02-01T21:33:21.489Z,5.40
2024-02-01T21:36:23.609Z,5.37
2024-02-01T21:39:49.958Z,5.38
2024-02-01T21:43:01.894Z,5.44
2024-02-01T21:46:11.071Z,5.30
2024-02-01T21:49:13.848Z,5.12
2024-02-01T21:52:18.548Z,4.90
2024-02-01T21:55:20.502Z,4.76
2024-02-01T21:58:22.337Z,4.78
2024-02-01T22:01:24.198Z,4.68
2024-02-01T22:04:26.185Z,4.55
2024-02-01T22:07:28.342Z,4.46
2024-02-01T22:10:30.251Z,4.51
2024-02-01T22:13:32.004Z,4.45
2024-02-01T22:16:33.858Z,4.47
2024-02-01T22:19:35.728Z,4.43
2024-02-01T22:22:40.740Z,4.49
2024-02-01T22:25:42.943Z,4.44
2024-02-01T22:28:44.977Z,4.34
2024-02-01T22:31:47.132Z,4.34
2024-02-01T22:34:49.157Z,4.39
2024-02-01T22:37:50.979Z,4.45
2024-02-01T22:40:52.839Z,4.38
2024-02-01T22:43:54.685Z,4.44
2024-02-01T22:46:58.816Z,4.42
2024-02-01T22:50:00.751Z,4.38
2024-02-01T22:53:02.906Z,4.39
2024-02-01T22:56:05.061Z,4.24
2024-02-01T22:59:07.121Z,4.22
2024-02-01T23:02:08.973Z,4.33
2024-02-01T23:05:10.874Z,4.28
2024-02-01T23:08:12.821Z,4.01
2024-02-01T23:11:14.734Z,4.04
2024-02-01T23:14:16.552Z,4.01
2024-02-01T23:17:19.167Z,4.19
2024-02-01T23:20:20.921Z,4.24
2024-02-01T23:23:23.147Z,4.28
2024-02-01T23:26:26.768Z,4.31
2024-02-01T23:29:28.558Z,4.29
2024-02-01T23:32:30.412Z,4.22
2024-02-01T23:35:32.191Z,4.22
2024-02-01T23:38:33.944Z,4.22
2024-02-01T23:41:35.778Z,4.18
2024-02-01T23:44:37.561Z,4.13
2024-02-01T23:47:40.123Z,4.12
2024-02-01T23:50:42.088Z,4.06
2024-02-01T23:53:43.857Z,4.02
2024-02-01T23:56:45.672Z,3.96
2024-02-01T23:59:47.657Z,3.89
